Maddy — CQPG — position and weather

sailwx.info

Track history (hours):
 
Tides and Currents Weather Stations Pressure Air Temp Water Temp Dewpoint Dewpoint Depression Visibility Wind Speed Wind Dir Waves Ship Positions

Maddy

Last reported at 2018-Apr-25 15:56 UTC. Time now 2018-Apr-26 07:57 UTC.
Position N 35°58' W 005°36'.

Length 75 m; draft 5.2 m.

Type: Ship. MMSI: 255802440.

Date/timePositionNaut miles runAvg speedWind from/ knotsBaromVisibWave heightAir tempDewpointWater temp
2018-Apr-25 15:56N 35°58' W 005°36'3 7.2
2018-Apr-25 15:28N 35°59' W 005°32'3 6.8
2018-Apr-25 15:01N 35°60' W 005°29'4 7.1
2018-Apr-25 14:31N 36°02' W 005°25'4 8.4
2018-Apr-25 14:00N 36°06' W 005°24'4 8.2
2018-Apr-25 13:30N 36°10' W 005°24'0 0.0
2018-Apr-24 23:29N 36°11' W 005°24'2 4.9
2018-Apr-24 22:59N 36°08' W 005°24'3 6.5
2018-Apr-24 22:31N 36°05' W 005°23'3 5.4
2018-Apr-24 22:00N 36°04' W 005°20'2 3.9
2018-Apr-24 21:31N 36°04' W 005°22'5 9.6
2018-Apr-24 21:01N 35°60' W 005°24'510.2
2018-Apr-24 20:30N 35°57' W 005°30'  
2018-Apr-21 19:07N 28°34' W 014°42'1 8.4
2018-Apr-21 18:59N 28°33' W 014°43'4 8.6
2018-Apr-21 18:30N 28°30' W 014°46'4 8.7
2018-Apr-21 18:00N 28°27' W 014°50'4 8.8
2018-Apr-21 17:30N 28°24' W 014°53'4 8.8
2018-Apr-21 17:00N 28°21' W 014°57'4 8.8
2018-Apr-21 16:30N 28°18' W 015°00'4 8.9
2018-Apr-21 16:00N 28°15' W 015°04'4 8.8
2018-Apr-21 15:30N 28°12' W 015°07'4 8.5
2018-Apr-21 15:01N 28°09' W 015°11'4 8.2
2018-Apr-21 14:30N 28°06' W 015°14'4 8.3
2018-Apr-21 14:00N 28°03' W 015°17'4 8.6
2018-Apr-21 13:30N 27°59' W 015°21'2 0.3
2018-Apr-21 05:53N 27°59' W 015°23'0 0.0
2018-Apr-21 05:30N 27°59' W 015°23'0 0.0
2018-Apr-21 04:57N 27°59' W 015°23'2 3.7
2018-Apr-21 04:31N 27°58' W 015°21'2 3.4
2018-Apr-21 04:01N 27°58' W 015°19'0 1.0
2018-Apr-21 03:31N 27°58' W 015°19'2 3.7
2018-Apr-21 03:01N 27°56' W 015°19'2 3.8
2018-Apr-21 02:31N 27°58' W 015°19'3 5.5
2018-Apr-21 02:00N 28°01' W 015°19'1 1.1
2018-Apr-21 01:30N 28°00' W 015°18'2 3.3
2018-Apr-21 01:00N 27°59' W 015°19'1 3.0
2018-Apr-21 00:30N 27°57' W 015°18'2 3.2
2018-Apr-21 00:00N 27°56' W 015°17'1 1.2
2018-Apr-20 23:30N 27°56' W 015°16'3 5.8
2018-Apr-20 23:00N 27°59' W 015°16'3 5.6
2018-Apr-20 22:30N 28°02' W 015°16'1 1.8
2018-Apr-20 22:00N 28°01' W 015°17'1 2.9
2018-Apr-20 21:30N 27°59' W 015°16'1 2.9
2018-Apr-20 21:00N 27°58' W 015°16'1 2.8
2018-Apr-20 20:30N 27°57' W 015°16'1 2.7
2018-Apr-20 20:00N 27°55' W 015°16'1 2.4
2018-Apr-20 19:30N 27°54' W 015°16'3 5.9
2018-Apr-20 19:01N 27°57' W 015°16'3 5.9
2018-Apr-20 18:31N 27°60' W 015°16'2 3.6
2018-Apr-20 18:01N 28°02' W 015°16'1 2.7
2018-Apr-20 17:31N 28°00' W 015°16'1 2.6
2018-Apr-20 17:01N 27°59' W 015°16'1 2.6
2018-Apr-20 16:31N 27°58' W 015°16'1 2.8
2018-Apr-20 16:00N 27°56' W 015°17'0 0.8
2018-Apr-20 15:31N 27°56' W 015°17'3 5.4
2018-Apr-20 14:59N 27°59' W 015°16'1 1.9
2018-Apr-20 14:31N 27°60' W 015°16'2 3.1
2018-Apr-20 14:01N 27°58' W 015°17'2 3.0
2018-Apr-20 13:31N 27°57' W 015°17'1 1.6
2018-Apr-20 13:01N 27°57' W 015°17'3 5.0
2018-Apr-20 12:30N 27°60' W 015°16'4 8.1
2018-Apr-20 12:00N 28°01' W 015°12'4 8.7
2018-Apr-20 11:30N 28°03' W 015°07'4 8.5
2018-Apr-20 11:00N 28°04' W 015°03'4 7.9
2018-Apr-20 10:30N 28°03' W 014°58'4 8.0
2018-Apr-20 10:00N 28°03' W 014°54'4 7.8
2018-Apr-20 09:30N 28°03' W 014°49'4 7.8
2018-Apr-20 09:00N 28°02' W 014°45'4 7.7
2018-Apr-20 08:29N 28°02' W 014°41'4 7.6
2018-Apr-20 08:00N 28°02' W 014°36'54 2.5
2018-Apr-19 10:08N 28°33' W 013°46'1 9.3
2018-Apr-19 09:59N 28°34' W 013°46'4 8.9
2018-Apr-19 09:30N 28°38' W 013°44'4 8.8
2018-Apr-19 09:00N 28°42' W 013°41'4 8.3
2018-Apr-19 08:30N 28°46' W 013°39'4 8.3
2018-Apr-19 08:00N 28°49' W 013°37'4 8.7
2018-Apr-19 07:30N 28°53' W 013°34'5 8.5
2018-Apr-19 06:58N 28°57' W 013°32'1 0.1
2018-Apr-18 18:28N 28°58' W 013°32'0 0.0
2018-Apr-18 17:34N 28°58' W 013°32'0 0.1
2018-Apr-18 17:25N 28°58' W 013°32'0 0.0
2018-Apr-18 16:58N 28°58' W 013°32'0 0.0
2018-Apr-18 16:28N 28°58' W 013°32'0 0.0
2018-Apr-18 15:52N 28°58' W 013°32'0 0.0
2018-Apr-18 15:28N 28°58' W 013°32'0 0.0
2018-Apr-18 14:58N 28°58' W 013°32'0 0.0
2018-Apr-18 14:28N 28°58' W 013°32'0 0.0
2018-Apr-18 13:58N 28°58' W 013°32'0 0.0
2018-Apr-18 13:28N 28°58' W 013°32'0 0.0
2018-Apr-18 12:58N 28°58' W 013°32'0 0.0
2018-Apr-18 12:28N 28°58' W 013°32'0 0.0
2018-Apr-18 11:58N 28°58' W 013°32'0 0.0
2018-Apr-18 11:28N 28°58' W 013°32'0 0.0
2018-Apr-18 10:19N 28°58' W 013°32'0 0.0
2018-Apr-18 09:52N 28°58' W 013°32'0 0.0
2018-Apr-18 09:30N 28°58' W 013°32'0 0.0
2018-Apr-18 09:00N 28°58' W 013°32'1 2.1
2018-Apr-18 08:29N 28°57' W 013°32'3 6.6
2018-Apr-18 08:00N 28°55' W 013°35'4 6.9
2018-Apr-18 07:30N 28°53' W 013°38'4 7.3
2018-Apr-18 07:00N 28°51' W 013°42'4 7.1
2018-Apr-18 06:30N 28°49' W 013°45'8 6.5
2018-Apr-18 05:20N 28°48' W 013°54'2 7.2
2018-Apr-18 05:00N 28°48' W 013°57'4 7.2
2018-Apr-18 04:30N 28°48' W 014°01'4 7.4
2018-Apr-18 04:00N 28°48' W 014°05'4 7.3
2018-Apr-18 03:30N 28°46' W 014°09'4 7.2
2018-Apr-18 03:00N 28°44' W 014°12'4 7.0
2018-Apr-18 02:28N 28°43' W 014°16'5 7.1
2018-Apr-18 01:49N 28°40' W 014°20'3 7.2
2018-Apr-18 01:23N 28°39' W 014°23'3 7.1
2018-Apr-18 01:00N 28°37' W 014°26'3 7.0
2018-Apr-18 00:30N 28°36' W 014°30'4 7.2
2018-Apr-18 00:00N 28°34' W 014°33'4 7.0
2018-Apr-17 23:30N 28°32' W 014°37'4 7.2
2018-Apr-17 23:00N 28°30' W 014°40'4 7.3
2018-Apr-17 22:30N 28°29' W 014°44'4 7.4
2018-Apr-17 22:00N 28°27' W 014°47'4 8.5
2018-Apr-17 21:30N 28°25' W 014°51'4 8.5
2018-Apr-17 21:00N 28°22' W 014°56'4 8.4
2018-Apr-17 20:30N 28°20' W 014°60'4 8.3
2018-Apr-17 20:00N 28°18' W 015°04'4 8.1
2018-Apr-17 19:30N 28°16' W 015°08'4 8.3
2018-Apr-17 19:00N 28°14' W 015°12'4 8.5
2018-Apr-17 18:30N 28°12' W 015°16'4 8.8
2018-Apr-17 18:00N 28°10' W 015°21'4 6.3
2018-Apr-17 17:25N 28°08' W 015°24'0 0.2
2018-Apr-17 16:55N 28°08' W 015°24'0 0.0
2018-Apr-17 16:25N 28°08' W 015°24'0 0.0
2018-Apr-17 15:55N 28°08' W 015°24'0 0.0
2018-Apr-17 15:25N 28°08' W 015°24'0 0.0
2018-Apr-17 14:58N 28°08' W 015°24'0 0.0
2018-Apr-17 14:28N 28°08' W 015°24'0 0.0
2018-Apr-17 13:58N 28°08' W 015°24'0 0.0
2018-Apr-17 13:28N 28°08' W 015°24'0 0.0
2018-Apr-17 12:58N 28°08' W 015°24'0 0.0
2018-Apr-17 12:28N 28°08' W 015°24'0 0.0
2018-Apr-17 11:58N 28°08' W 015°24'0 0.0
2018-Apr-17 11:28N 28°08' W 015°24'0 0.0
2018-Apr-17 10:31N 28°08' W 015°24'0 0.1
2018-Apr-17 10:28N 28°08' W 015°24'0 0.0
2018-Apr-17 09:58N 28°08' W 015°24'0 0.0
2018-Apr-17 09:28N 28°08' W 015°24'0 0.0
2018-Apr-17 08:58N 28°08' W 015°24'0 0.0
2018-Apr-17 08:19N 28°08' W 015°24'0 0.0
2018-Apr-17 07:49N 28°08' W 015°24'0 0.0
2018-Apr-17 07:16N 28°08' W 015°24'0 0.0
2018-Apr-17 06:52N 28°08' W 015°24'0 0.0
2018-Apr-17 06:22N 28°08' W 015°24'0 0.0
2018-Apr-17 05:52N 28°08' W 015°24'0 0.0
2018-Apr-17 05:22N 28°08' W 015°24'0 0.0
2018-Apr-17 04:52N 28°08' W 015°24'0 0.0
2018-Apr-17 04:25N 28°08' W 015°24'0 0.0
2018-Apr-17 03:55N 28°08' W 015°24'0 0.0
2018-Apr-17 03:25N 28°08' W 015°24'0 0.0
2018-Apr-17 02:55N 28°08' W 015°24'0 0.0
2018-Apr-17 02:25N 28°08' W 015°24'0 0.0
2018-Apr-17 01:52N 28°08' W 015°24'0 0.0
2018-Apr-17 01:28N 28°08' W 015°24'0 0.0
2018-Apr-17 00:58N 28°08' W 015°24'0 0.0
2018-Apr-17 00:28N 28°08' W 015°24'0 0.0
2018-Apr-16 23:58N 28°08' W 015°24'0 0.1
2018-Apr-16 23:28N 28°08' W 015°24'0 0.0
2018-Apr-16 22:58N 28°08' W 015°24'0 0.0
2018-Apr-16 22:28N 28°08' W 015°24'0 0.0
2018-Apr-16 21:58N 28°08' W 015°24'0 0.0
2018-Apr-16 21:28N 28°08' W 015°24'0 0.0
2018-Apr-16 20:58N 28°08' W 015°24'0 0.0
2018-Apr-16 20:30N 28°08' W 015°24'0 0.0
2018-Apr-16 20:00N 28°08' W 015°24'0 0.0
2018-Apr-16 19:30N 28°08' W 015°24'0 0.0
2018-Apr-16 19:00N 28°08' W 015°24'0 0.0
2018-Apr-16 18:30N 28°08' W 015°24'0 0.0
2018-Apr-16 18:00N 28°08' W 015°24'0 0.0
2018-Apr-16 17:30N 28°08' W 015°24'0 0.0
2018-Apr-16 17:00N 28°08' W 015°24'0 0.0
2018-Apr-16 16:21N 28°08' W 015°24'0 0.0
2018-Apr-16 15:51N 28°08' W 015°24'0 0.0
2018-Apr-16 15:21N 28°08' W 015°24'0 0.0
2018-Apr-16 14:54N 28°08' W 015°24'0 0.0
2018-Apr-16 14:24N 28°08' W 015°24'0 0.0
2018-Apr-16 13:54N 28°08' W 015°24'0 0.0
2018-Apr-16 13:24N 28°08' W 015°24'0 0.0
2018-Apr-16 12:54N 28°08' W 015°24'0 0.0
2018-Apr-16 12:27N 28°08' W 015°24'0 0.0
2018-Apr-16 11:57N 28°08' W 015°24'0 0.0
2018-Apr-16 11:27N 28°08' W 015°24'0 0.0
2018-Apr-16 10:57N 28°08' W 015°24'0 0.0
2018-Apr-16 10:27N 28°08' W 015°24'0 0.0
2018-Apr-16 09:57N 28°08' W 015°24'0 0.0
2018-Apr-16 09:27N 28°08' W 015°24'0 0.0
2018-Apr-16 09:00N 28°08' W 015°24'0 0.0
2018-Apr-16 08:30N 28°08' W 015°24'0 0.0
2018-Apr-16 08:00N 28°08' W 015°24'0 0.0
2018-Apr-16 07:30N 28°08' W 015°24'0 0.0
2018-Apr-16 07:00N 28°08' W 015°24'0 0.0
2018-Apr-16 06:30N 28°08' W 015°24'0 0.0
2018-Apr-16 06:00N 28°08' W 015°24'0 0.0
2018-Apr-16 05:30N 28°08' W 015°24'0 0.0
2018-Apr-16 05:00N 28°08' W 015°24'0 0.0
2018-Apr-16 04:30N 28°08' W 015°24'0 0.0
2018-Apr-16 04:00N 28°08' W 015°24'0 0.0
2018-Apr-16 03:30N 28°08' W 015°24'0 0.0
2018-Apr-16 03:00N 28°08' W 015°24'0 0.0
2018-Apr-16 02:21N 28°08' W 015°24'0 0.0
2018-Apr-16 01:51N 28°08' W 015°24'0 0.0
2018-Apr-16 01:21N 28°08' W 015°24'0 0.0
2018-Apr-16 00:54N 28°08' W 015°24'0 0.0
2018-Apr-16 00:24N 28°08' W 015°24'0 0.0
2018-Apr-15 23:54N 28°08' W 015°24'0 0.0
2018-Apr-15 23:24N 28°08' W 015°24'0 0.0
2018-Apr-15 22:54N 28°08' W 015°24'0 0.0
2018-Apr-15 22:27N 28°08' W 015°24'0 0.0
2018-Apr-15 21:57N 28°08' W 015°24'0 0.0
2018-Apr-15 21:27N 28°08' W 015°24'0 0.0
2018-Apr-15 20:57N 28°08' W 015°24'0 0.0
2018-Apr-15 20:27N 28°08' W 015°24'0 0.0
2018-Apr-15 19:57N 28°08' W 015°24'0 0.0
2018-Apr-15 19:30N 28°08' W 015°24'0 0.0
2018-Apr-15 19:00N 28°08' W 015°24'0 0.0
2018-Apr-15 18:30N 28°08' W 015°24'0 0.0
2018-Apr-15 18:00N 28°08' W 015°24'0 0.0
2018-Apr-15 17:30N 28°08' W 015°24'0 0.0
2018-Apr-15 17:00N 28°08' W 015°24'0 0.0
2018-Apr-15 16:30N 28°08' W 015°24'0 0.0
2018-Apr-15 16:00N 28°08' W 015°24'  
Track history (hours):
 
Tides and Currents Weather Stations Pressure Air Temp Water Temp Dewpoint Dewpoint Depression Visibility Wind Speed Wind Dir Waves Ship Positions

Maddy

Last reported at 2018-Apr-25 15:56 UTC. Time now 2018-Apr-26 07:57 UTC.
Position N 35°58' W 005°36'.

Length 75 m; draft 5.2 m.

Type: Ship. MMSI: 255802440.

Date/timePositionNaut miles runAvg speedWind from/ knotsBaromVisibWave heightAir tempDewpointWater temp
2018-Apr-25 15:56N 35°58' W 005°36'3 7.2
2018-Apr-25 15:28N 35°59' W 005°32'3 6.8
2018-Apr-25 15:01N 35°60' W 005°29'4 7.1
2018-Apr-25 14:31N 36°02' W 005°25'4 8.4
2018-Apr-25 14:00N 36°06' W 005°24'4 8.2
2018-Apr-25 13:30N 36°10' W 005°24'0 0.0
2018-Apr-24 23:29N 36°11' W 005°24'2 4.9
2018-Apr-24 22:59N 36°08' W 005°24'3 6.5
2018-Apr-24 22:31N 36°05' W 005°23'3 5.4
2018-Apr-24 22:00N 36°04' W 005°20'2 3.9
2018-Apr-24 21:31N 36°04' W 005°22'5 9.6
2018-Apr-24 21:01N 35°60' W 005°24'510.2
2018-Apr-24 20:30N 35°57' W 005°30'  
2018-Apr-21 19:07N 28°34' W 014°42'1 8.4
2018-Apr-21 18:59N 28°33' W 014°43'4 8.6
2018-Apr-21 18:30N 28°30' W 014°46'4 8.7
2018-Apr-21 18:00N 28°27' W 014°50'4 8.8
2018-Apr-21 17:30N 28°24' W 014°53'4 8.8
2018-Apr-21 17:00N 28°21' W 014°57'4 8.8
2018-Apr-21 16:30N 28°18' W 015°00'4 8.9
2018-Apr-21 16:00N 28°15' W 015°04'4 8.8
2018-Apr-21 15:30N 28°12' W 015°07'4 8.5
2018-Apr-21 15:01N 28°09' W 015°11'4 8.2
2018-Apr-21 14:30N 28°06' W 015°14'4 8.3
2018-Apr-21 14:00N 28°03' W 015°17'4 8.6
2018-Apr-21 13:30N 27°59' W 015°21'2 0.3
2018-Apr-21 05:53N 27°59' W 015°23'0 0.0
2018-Apr-21 05:30N 27°59' W 015°23'0 0.0
2018-Apr-21 04:57N 27°59' W 015°23'2 3.7
2018-Apr-21 04:31N 27°58' W 015°21'2 3.4
2018-Apr-21 04:01N 27°58' W 015°19'0 1.0
2018-Apr-21 03:31N 27°58' W 015°19'2 3.7
2018-Apr-21 03:01N 27°56' W 015°19'2 3.8
2018-Apr-21 02:31N 27°58' W 015°19'3 5.5
2018-Apr-21 02:00N 28°01' W 015°19'1 1.1
2018-Apr-21 01:30N 28°00' W 015°18'2 3.3
2018-Apr-21 01:00N 27°59' W 015°19'1 3.0
2018-Apr-21 00:30N 27°57' W 015°18'2 3.2
2018-Apr-21 00:00N 27°56' W 015°17'1 1.2
2018-Apr-20 23:30N 27°56' W 015°16'3 5.8
2018-Apr-20 23:00N 27°59' W 015°16'3 5.6
2018-Apr-20 22:30N 28°02' W 015°16'1 1.8
2018-Apr-20 22:00N 28°01' W 015°17'1 2.9
2018-Apr-20 21:30N 27°59' W 015°16'1 2.9
2018-Apr-20 21:00N 27°58' W 015°16'1 2.8
2018-Apr-20 20:30N 27°57' W 015°16'1 2.7
2018-Apr-20 20:00N 27°55' W 015°16'1 2.4
2018-Apr-20 19:30N 27°54' W 015°16'3 5.9
2018-Apr-20 19:01N 27°57' W 015°16'3 5.9
2018-Apr-20 18:31N 27°60' W 015°16'2 3.6
2018-Apr-20 18:01N 28°02' W 015°16'1 2.7
2018-Apr-20 17:31N 28°00' W 015°16'1 2.6
2018-Apr-20 17:01N 27°59' W 015°16'1 2.6
2018-Apr-20 16:31N 27°58' W 015°16'1 2.8
2018-Apr-20 16:00N 27°56' W 015°17'0 0.8
2018-Apr-20 15:31N 27°56' W 015°17'3 5.4
2018-Apr-20 14:59N 27°59' W 015°16'1 1.9
2018-Apr-20 14:31N 27°60' W 015°16'2 3.1
2018-Apr-20 14:01N 27°58' W 015°17'2 3.0
2018-Apr-20 13:31N 27°57' W 015°17'1 1.6
2018-Apr-20 13:01N 27°57' W 015°17'3 5.0
2018-Apr-20 12:30N 27°60' W 015°16'4 8.1
2018-Apr-20 12:00N 28°01' W 015°12'4 8.7
2018-Apr-20 11:30N 28°03' W 015°07'4 8.5
2018-Apr-20 11:00N 28°04' W 015°03'4 7.9
2018-Apr-20 10:30N 28°03' W 014°58'4 8.0
2018-Apr-20 10:00N 28°03' W 014°54'4 7.8
2018-Apr-20 09:30N 28°03' W 014°49'4 7.8
2018-Apr-20 09:00N 28°02' W 014°45'4 7.7
2018-Apr-20 08:29N 28°02' W 014°41'4 7.6
2018-Apr-20 08:00N 28°02' W 014°36'54 2.5
2018-Apr-19 10:08N 28°33' W 013°46'1 9.3
2018-Apr-19 09:59N 28°34' W 013°46'4 8.9
2018-Apr-19 09:30N 28°38' W 013°44'4 8.8
2018-Apr-19 09:00N 28°42' W 013°41'4 8.3
2018-Apr-19 08:30N 28°46' W 013°39'4 8.3
2018-Apr-19 08:00N 28°49' W 013°37'4 8.7
2018-Apr-19 07:30N 28°53' W 013°34'5 8.5
2018-Apr-19 06:58N 28°57' W 013°32'1 0.1
2018-Apr-18 18:28N 28°58' W 013°32'0 0.0
2018-Apr-18 17:34N 28°58' W 013°32'0 0.1
2018-Apr-18 17:25N 28°58' W 013°32'0 0.0
2018-Apr-18 16:58N 28°58' W 013°32'0 0.0
2018-Apr-18 16:28N 28°58' W 013°32'0 0.0
2018-Apr-18 15:52N 28°58' W 013°32'0 0.0
2018-Apr-18 15:28N 28°58' W 013°32'0 0.0
2018-Apr-18 14:58N 28°58' W 013°32'0 0.0
2018-Apr-18 14:28N 28°58' W 013°32'0 0.0
2018-Apr-18 13:58N 28°58' W 013°32'0 0.0
2018-Apr-18 13:28N 28°58' W 013°32'0 0.0
2018-Apr-18 12:58N 28°58' W 013°32'0 0.0
2018-Apr-18 12:28N 28°58' W 013°32'0 0.0
2018-Apr-18 11:58N 28°58' W 013°32'0 0.0
2018-Apr-18 11:28N 28°58' W 013°32'0 0.0
2018-Apr-18 10:19N 28°58' W 013°32'0 0.0
2018-Apr-18 09:52N 28°58' W 013°32'0 0.0
2018-Apr-18 09:30N 28°58' W 013°32'0 0.0
2018-Apr-18 09:00N 28°58' W 013°32'1 2.1
2018-Apr-18 08:29N 28°57' W 013°32'3 6.6
2018-Apr-18 08:00N 28°55' W 013°35'4 6.9
2018-Apr-18 07:30N 28°53' W 013°38'4 7.3
2018-Apr-18 07:00N 28°51' W 013°42'4 7.1
2018-Apr-18 06:30N 28°49' W 013°45'8 6.5
2018-Apr-18 05:20N 28°48' W 013°54'2 7.2
2018-Apr-18 05:00N 28°48' W 013°57'4 7.2
2018-Apr-18 04:30N 28°48' W 014°01'4 7.4
2018-Apr-18 04:00N 28°48' W 014°05'4 7.3
2018-Apr-18 03:30N 28°46' W 014°09'4 7.2
2018-Apr-18 03:00N 28°44' W 014°12'4 7.0
2018-Apr-18 02:28N 28°43' W 014°16'5 7.1
2018-Apr-18 01:49N 28°40' W 014°20'3 7.2
2018-Apr-18 01:23N 28°39' W 014°23'3 7.1
2018-Apr-18 01:00N 28°37' W 014°26'3 7.0
2018-Apr-18 00:30N 28°36' W 014°30'4 7.2
2018-Apr-18 00:00N 28°34' W 014°33'4 7.0
2018-Apr-17 23:30N 28°32' W 014°37'4 7.2
2018-Apr-17 23:00N 28°30' W 014°40'4 7.3
2018-Apr-17 22:30N 28°29' W 014°44'4 7.4
2018-Apr-17 22:00N 28°27' W 014°47'4 8.5
2018-Apr-17 21:30N 28°25' W 014°51'4 8.5
2018-Apr-17 21:00N 28°22' W 014°56'4 8.4
2018-Apr-17 20:30N 28°20' W 014°60'4 8.3
2018-Apr-17 20:00N 28°18' W 015°04'4 8.1
2018-Apr-17 19:30N 28°16' W 015°08'4 8.3
2018-Apr-17 19:00N 28°14' W 015°12'4 8.5
2018-Apr-17 18:30N 28°12' W 015°16'4 8.8
2018-Apr-17 18:00N 28°10' W 015°21'4 6.3
2018-Apr-17 17:25N 28°08' W 015°24'0 0.2
2018-Apr-17 16:55N 28°08' W 015°24'0 0.0
2018-Apr-17 16:25N 28°08' W 015°24'0 0.0
2018-Apr-17 15:55N 28°08' W 015°24'0 0.0
2018-Apr-17 15:25N 28°08' W 015°24'0 0.0
2018-Apr-17 14:58N 28°08' W 015°24'0 0.0
2018-Apr-17 14:28N 28°08' W 015°24'0 0.0
2018-Apr-17 13:58N 28°08' W 015°24'0 0.0
2018-Apr-17 13:28N 28°08' W 015°24'0 0.0
2018-Apr-17 12:58N 28°08' W 015°24'0 0.0
2018-Apr-17 12:28N 28°08' W 015°24'0 0.0
2018-Apr-17 11:58N 28°08' W 015°24'0 0.0
2018-Apr-17 11:28N 28°08' W 015°24'0 0.0
2018-Apr-17 10:31N 28°08' W 015°24'0 0.1
2018-Apr-17 10:28N 28°08' W 015°24'0 0.0
2018-Apr-17 09:58N 28°08' W 015°24'0 0.0
2018-Apr-17 09:28N 28°08' W 015°24'0 0.0
2018-Apr-17 08:58N 28°08' W 015°24'0 0.0
2018-Apr-17 08:19N 28°08' W 015°24'0 0.0
2018-Apr-17 07:49N 28°08' W 015°24'0 0.0
2018-Apr-17 07:16N 28°08' W 015°24'0 0.0
2018-Apr-17 06:52N 28°08' W 015°24'0 0.0
2018-Apr-17 06:22N 28°08' W 015°24'0 0.0
2018-Apr-17 05:52N 28°08' W 015°24'0 0.0
2018-Apr-17 05:22N 28°08' W 015°24'0 0.0
2018-Apr-17 04:52N 28°08' W 015°24'0 0.0
2018-Apr-17 04:25N 28°08' W 015°24'0 0.0
2018-Apr-17 03:55N 28°08' W 015°24'0 0.0
2018-Apr-17 03:25N 28°08' W 015°24'0 0.0
2018-Apr-17 02:55N 28°08' W 015°24'0 0.0
2018-Apr-17 02:25N 28°08' W 015°24'0 0.0
2018-Apr-17 01:52N 28°08' W 015°24'0 0.0
2018-Apr-17 01:28N 28°08' W 015°24'0 0.0
2018-Apr-17 00:58N 28°08' W 015°24'0 0.0
2018-Apr-17 00:28N 28°08' W 015°24'0 0.0
2018-Apr-16 23:58N 28°08' W 015°24'0 0.1
2018-Apr-16 23:28N 28°08' W 015°24'0 0.0
2018-Apr-16 22:58N 28°08' W 015°24'0 0.0
2018-Apr-16 22:28N 28°08' W 015°24'0 0.0
2018-Apr-16 21:58N 28°08' W 015°24'0 0.0
2018-Apr-16 21:28N 28°08' W 015°24'0 0.0
2018-Apr-16 20:58N 28°08' W 015°24'0 0.0
2018-Apr-16 20:30N 28°08' W 015°24'0 0.0
2018-Apr-16 20:00N 28°08' W 015°24'0 0.0
2018-Apr-16 19:30N 28°08' W 015°24'0 0.0
2018-Apr-16 19:00N 28°08' W 015°24'0 0.0
2018-Apr-16 18:30N 28°08' W 015°24'0 0.0
2018-Apr-16 18:00N 28°08' W 015°24'0 0.0
2018-Apr-16 17:30N 28°08' W 015°24'0 0.0
2018-Apr-16 17:00N 28°08' W 015°24'0 0.0
2018-Apr-16 16:21N 28°08' W 015°24'0 0.0
2018-Apr-16 15:51N 28°08' W 015°24'0 0.0
2018-Apr-16 15:21N 28°08' W 015°24'0 0.0
2018-Apr-16 14:54N 28°08' W 015°24'0 0.0
2018-Apr-16 14:24N 28°08' W 015°24'0 0.0
2018-Apr-16 13:54N 28°08' W 015°24'0 0.0
2018-Apr-16 13:24N 28°08' W 015°24'0 0.0
2018-Apr-16 12:54N 28°08' W 015°24'0 0.0
2018-Apr-16 12:27N 28°08' W 015°24'0 0.0
2018-Apr-16 11:57N 28°08' W 015°24'0 0.0
2018-Apr-16 11:27N 28°08' W 015°24'0 0.0
2018-Apr-16 10:57N 28°08' W 015°24'0 0.0
2018-Apr-16 10:27N 28°08' W 015°24'0 0.0
2018-Apr-16 09:57N 28°08' W 015°24'0 0.0
2018-Apr-16 09:27N 28°08' W 015°24'0 0.0
2018-Apr-16 09:00N 28°08' W 015°24'0 0.0
2018-Apr-16 08:30N 28°08' W 015°24'0 0.0
2018-Apr-16 08:00N 28°08' W 015°24'0 0.0
2018-Apr-16 07:30N 28°08' W 015°24'0 0.0
2018-Apr-16 07:00N 28°08' W 015°24'0 0.0
2018-Apr-16 06:30N 28°08' W 015°24'0 0.0
2018-Apr-16 06:00N 28°08' W 015°24'0 0.0
2018-Apr-16 05:30N 28°08' W 015°24'0 0.0
2018-Apr-16 05:00N 28°08' W 015°24'0 0.0
2018-Apr-16 04:30N 28°08' W 015°24'0 0.0
2018-Apr-16 04:00N 28°08' W 015°24'0 0.0
2018-Apr-16 03:30N 28°08' W 015°24'0 0.0
2018-Apr-16 03:00N 28°08' W 015°24'0 0.0
2018-Apr-16 02:21N 28°08' W 015°24'0 0.0
2018-Apr-16 01:51N 28°08' W 015°24'0 0.0
2018-Apr-16 01:21N 28°08' W 015°24'0 0.0
2018-Apr-16 00:54N 28°08' W 015°24'0 0.0
2018-Apr-16 00:24N 28°08' W 015°24'0 0.0
2018-Apr-15 23:54N 28°08' W 015°24'0 0.0
2018-Apr-15 23:24N 28°08' W 015°24'0 0.0
2018-Apr-15 22:54N 28°08' W 015°24'0 0.0
2018-Apr-15 22:27N 28°08' W 015°24'0 0.0
2018-Apr-15 21:57N 28°08' W 015°24'0 0.0
2018-Apr-15 21:27N 28°08' W 015°24'0 0.0
2018-Apr-15 20:57N 28°08' W 015°24'0 0.0
2018-Apr-15 20:27N 28°08' W 015°24'0 0.0
2018-Apr-15 19:57N 28°08' W 015°24'0 0.0
2018-Apr-15 19:30N 28°08' W 015°24'0 0.0
2018-Apr-15 19:00N 28°08' W 015°24'0 0.0
2018-Apr-15 18:30N 28°08' W 015°24'0 0.0
2018-Apr-15 18:00N 28°08' W 015°24'0 0.0
2018-Apr-15 17:30N 28°08' W 015°24'0 0.0
2018-Apr-15 17:00N 28°08' W 015°24'0 0.0
2018-Apr-15 16:30N 28°08' W 015°24'0 0.0
2018-Apr-15 16:00N 28°08' W 015°24'  

Dump ship's entire track history